sensor_id;sensor_type;location;lat;lon;timestamp;P1;durP1;ratioP1;P2;durP2;ratioP2
66272;SDS011;58450;52.150;4.466;2023-03-08T00:00:15;4.43;;;1.95;;
66272;SDS011;58450;52.150;4.466;2023-03-08T00:02:45;3.75;;;1.70;;
66272;SDS011;58450;52.150;4.466;2023-03-08T00:05:13;4.68;;;1.70;;
66272;SDS011;58450;52.150;4.466;2023-03-08T00:07:43;2.95;;;1.80;;
66272;SDS011;58450;52.150;4.466;2023-03-08T00:10:10;4.80;;;1.67;;
66272;SDS011;58450;52.150;4.466;2023-03-08T00:12:39;5.05;;;2.08;;
66272;SDS011;58450;52.150;4.466;2023-03-08T00:15:06;4.13;;;2.08;;
66272;SDS011;58450;52.150;4.466;2023-03-08T00:17:35;4.45;;;1.90;;
66272;SDS011;58450;52.150;4.466;2023-03-08T00:20:03;4.80;;;1.98;;
66272;SDS011;58450;52.150;4.466;2023-03-08T00:22:34;5.15;;;2.00;;
66272;SDS011;58450;52.150;4.466;2023-03-08T00:25:03;4.72;;;1.90;;
66272;SDS011;58450;52.150;4.466;2023-03-08T00:27:33;3.53;;;2.10;;
66272;SDS011;58450;52.150;4.466;2023-03-08T00:30:01;5.15;;;2.45;;
66272;SDS011;58450;52.150;4.466;2023-03-08T00:32:30;3.95;;;2.10;;
66272;SDS011;58450;52.150;4.466;2023-03-08T00:34:58;5.13;;;2.25;;
66272;SDS011;58450;52.150;4.466;2023-03-08T00:37:26;5.05;;;2.47;;
66272;SDS011;58450;52.150;4.466;2023-03-08T00:39:53;4.70;;;2.20;;
66272;SDS011;58450;52.150;4.466;2023-03-08T00:42:22;4.20;;;2.17;;
66272;SDS011;58450;52.150;4.466;2023-03-08T00:44:51;4.35;;;2.47;;
66272;SDS011;58450;52.150;4.466;2023-03-08T00:47:18;3.88;;;2.20;;
66272;SDS011;58450;52.150;4.466;2023-03-08T00:49:46;4.20;;;2.38;;
66272;SDS011;58450;52.150;4.466;2023-03-08T00:52:13;3.33;;;2.20;;
66272;SDS011;58450;52.150;4.466;2023-03-08T00:54:41;4.07;;;2.30;;
66272;SDS011;58450;52.150;4.466;2023-03-08T00:57:09;4.03;;;2.10;;
66272;SDS011;58450;52.150;4.466;2023-03-08T00:59:37;3.90;;;2.40;;
66272;SDS011;58450;52.150;4.466;2023-03-08T01:02:05;4.82;;;2.17;;
66272;SDS011;58450;52.150;4.466;2023-03-08T01:04:32;5.32;;;2.22;;
66272;SDS011;58450;52.150;4.466;2023-03-08T01:07:00;6.40;;;2.50;;
66272;SDS011;58450;52.150;4.466;2023-03-08T01:09:27;5.85;;;2.40;;
66272;SDS011;58450;52.150;4.466;2023-03-08T01:11:55;5.10;;;2.17;;
66272;SDS011;58450;52.150;4.466;2023-03-08T01:14:23;5.38;;;2.25;;
66272;SDS011;58450;52.150;4.466;2023-03-08T01:16:52;4.75;;;2.28;;
66272;SDS011;58450;52.150;4.466;2023-03-08T01:19:20;4.25;;;2.25;;
66272;SDS011;58450;52.150;4.466;2023-03-08T01:21:47;6.30;;;2.50;;
66272;SDS011;58450;52.150;4.466;2023-03-08T01:24:15;5.72;;;2.75;;
66272;SDS011;58450;52.150;4.466;2023-03-08T01:26:42;6.05;;;2.30;;
66272;SDS011;58450;52.150;4.466;2023-03-08T01:29:10;4.97;;;2.80;;
66272;SDS011;58450;52.150;4.466;2023-03-08T01:31:37;5.07;;;2.90;;
66272;SDS011;58450;52.150;4.466;2023-03-08T01:34:08;6.20;;;2.60;;
66272;SDS011;58450;52.150;4.466;2023-03-08T01:36:35;5.55;;;2.58;;
66272;SDS011;58450;52.150;4.466;2023-03-08T01:39:03;4.85;;;2.40;;
66272;SDS011;58450;52.150;4.466;2023-03-08T01:41:30;6.03;;;2.50;;
66272;SDS011;58450;52.150;4.466;2023-03-08T01:43:58;6.47;;;2.42;;
66272;SDS011;58450;52.150;4.466;2023-03-08T01:46:26;6.25;;;2.45;;
66272;SDS011;58450;52.150;4.466;2023-03-08T01:48:57;7.30;;;2.65;;
66272;SDS011;58450;52.150;4.466;2023-03-08T01:51:35;6.18;;;2.55;;
66272;SDS011;58450;52.150;4.466;2023-03-08T01:54:09;5.88;;;2.80;;
66272;SDS011;58450;52.150;4.466;2023-03-08T01:56:41;5.23;;;2.70;;
66272;SDS011;58450;52.150;4.466;2023-03-08T01:59:13;5.70;;;2.30;;
66272;SDS011;58450;52.150;4.466;2023-03-08T02:01:41;5.63;;;2.40;;
66272;SDS011;58450;52.150;4.466;2023-03-08T02:04:09;4.60;;;2.35;;
66272;SDS011;58450;52.150;4.466;2023-03-08T02:06:39;4.28;;;2.30;;
66272;SDS011;58450;52.150;4.466;2023-03-08T02:09:08;4.15;;;2.30;;
66272;SDS011;58450;52.150;4.466;2023-03-08T02:11:36;7.57;;;2.40;;
66272;SDS011;58450;52.150;4.466;2023-03-08T02:14:08;4.72;;;2.30;;
66272;SDS011;58450;52.150;4.466;2023-03-08T02:16:35;4.57;;;1.85;;
66272;SDS011;58450;52.150;4.466;2023-03-08T02:19:05;3.83;;;2.20;;
66272;SDS011;58450;52.150;4.466;2023-03-08T02:21:41;5.45;;;1.98;;
66272;SDS011;58450;52.150;4.466;2023-03-08T02:24:17;3.92;;;2.00;;
66272;SDS011;58450;52.150;4.466;2023-03-08T02:26:48;5.85;;;2.20;;
66272;SDS011;58450;52.150;4.466;2023-03-08T02:29:25;5.45;;;2.15;;
66272;SDS011;58450;52.150;4.466;2023-03-08T02:31:53;6.15;;;2.20;;
66272;SDS011;58450;52.150;4.466;2023-03-08T02:34:20;3.20;;;1.83;;
66272;SDS011;58450;52.150;4.466;2023-03-08T02:36:48;4.47;;;2.00;;
66272;SDS011;58450;52.150;4.466;2023-03-08T02:39:17;5.38;;;2.10;;
66272;SDS011;58450;52.150;4.466;2023-03-08T02:41:45;7.72;;;2.50;;
66272;SDS011;58450;52.150;4.466;2023-03-08T02:44:13;8.25;;;2.35;;
66272;SDS011;58450;52.150;4.466;2023-03-08T02:46:40;6.00;;;2.60;;
66272;SDS011;58450;52.150;4.466;2023-03-08T02:49:08;4.55;;;2.22;;
66272;SDS011;58450;52.150;4.466;2023-03-08T02:51:36;4.65;;;2.58;;
66272;SDS011;58450;52.150;4.466;2023-03-08T02:54:03;5.40;;;2.22;;
66272;SDS011;58450;52.150;4.466;2023-03-08T02:56:32;6.05;;;2.20;;
66272;SDS011;58450;52.150;4.466;2023-03-08T02:59:02;4.95;;;2.38;;
66272;SDS011;58450;52.150;4.466;2023-03-08T03:01:29;5.80;;;2.55;;
66272;SDS011;58450;52.150;4.466;2023-03-08T03:03:57;4.47;;;2.47;;
66272;SDS011;58450;52.150;4.466;2023-03-08T03:06:24;5.15;;;2.70;;
66272;SDS011;58450;52.150;4.466;2023-03-08T03:08:52;3.63;;;2.15;;
66272;SDS011;58450;52.150;4.466;2023-03-08T03:11:21;5.35;;;2.45;;
66272;SDS011;58450;52.150;4.466;2023-03-08T03:13:54;8.02;;;2.83;;
66272;SDS011;58450;52.150;4.466;2023-03-08T03:16:23;4.88;;;2.40;;
66272;SDS011;58450;52.150;4.466;2023-03-08T03:18:52;4.38;;;2.42;;
66272;SDS011;58450;52.150;4.466;2023-03-08T03:21:22;6.50;;;3.00;;
66272;SDS011;58450;52.150;4.466;2023-03-08T03:23:50;6.43;;;2.85;;
66272;SDS011;58450;52.150;4.466;2023-03-08T03:26:20;5.25;;;2.90;;
66272;SDS011;58450;52.150;4.466;2023-03-08T03:28:50;5.43;;;3.00;;
66272;SDS011;58450;52.150;4.466;2023-03-08T03:31:22;6.18;;;2.97;;
66272;SDS011;58450;52.150;4.466;2023-03-08T03:33:51;6.78;;;3.50;;
66272;SDS011;58450;52.150;4.466;2023-03-08T03:36:20;5.97;;;3.13;;
66272;SDS011;58450;52.150;4.466;2023-03-08T03:38:48;6.93;;;3.53;;
66272;SDS011;58450;52.150;4.466;2023-03-08T03:41:17;6.85;;;3.97;;
66272;SDS011;58450;52.150;4.466;2023-03-08T03:43:47;8.20;;;4.22;;
66272;SDS011;58450;52.150;4.466;2023-03-08T03:46:17;6.70;;;3.95;;
66272;SDS011;58450;52.150;4.466;2023-03-08T03:48:49;7.05;;;4.22;;
66272;SDS011;58450;52.150;4.466;2023-03-08T03:51:17;8.57;;;4.30;;
66272;SDS011;58450;52.150;4.466;2023-03-08T03:53:46;7.45;;;4.72;;
66272;SDS011;58450;52.150;4.466;2023-03-08T03:56:15;9.88;;;4.97;;
66272;SDS011;58450;52.150;4.466;2023-03-08T03:58:45;7.80;;;4.68;;
66272;SDS011;58450;52.150;4.466;2023-03-08T04:01:14;6.97;;;4.53;;
66272;SDS011;58450;52.150;4.466;2023-03-08T04:03:45;8.65;;;4.88;;
66272;SDS011;58450;52.150;4.466;2023-03-08T04:06:15;7.38;;;4.45;;
66272;SDS011;58450;52.150;4.466;2023-03-08T04:08:45;9.50;;;4.88;;
66272;SDS011;58450;52.150;4.466;2023-03-08T04:11:14;9.13;;;5.00;;
66272;SDS011;58450;52.150;4.466;2023-03-08T04:13:43;9.00;;;4.03;;
66272;SDS011;58450;52.150;4.466;2023-03-08T04:16:12;6.55;;;4.13;;
66272;SDS011;58450;52.150;4.466;2023-03-08T04:18:43;7.63;;;4.30;;
66272;SDS011;58450;52.150;4.466;2023-03-08T04:21:12;8.15;;;4.47;;
66272;SDS011;58450;52.150;4.466;2023-03-08T04:23:41;8.73;;;4.45;;
66272;SDS011;58450;52.150;4.466;2023-03-08T04:26:09;7.70;;;4.68;;
66272;SDS011;58450;52.150;4.466;2023-03-08T04:28:38;9.93;;;4.97;;
66272;SDS011;58450;52.150;4.466;2023-03-08T04:31:12;6.53;;;4.40;;
66272;SDS011;58450;52.150;4.466;2023-03-08T04:33:42;7.28;;;4.57;;
66272;SDS011;58450;52.150;4.466;2023-03-08T04:36:10;7.38;;;4.65;;
66272;SDS011;58450;52.150;4.466;2023-03-08T04:38:38;6.95;;;4.60;;
66272;SDS011;58450;52.150;4.466;2023-03-08T04:41:08;9.73;;;4.78;;
66272;SDS011;58450;52.150;4.466;2023-03-08T04:43:36;7.97;;;5.28;;
66272;SDS011;58450;52.150;4.466;2023-03-08T04:46:05;7.55;;;4.95;;
66272;SDS011;58450;52.150;4.466;2023-03-08T04:48:33;9.00;;;5.10;;
66272;SDS011;58450;52.150;4.466;2023-03-08T04:51:02;7.38;;;5.20;;
66272;SDS011;58450;52.150;4.466;2023-03-08T04:53:33;9.20;;;5.18;;
66272;SDS011;58450;52.150;4.466;2023-03-08T04:56:04;8.00;;;5.15;;
66272;SDS011;58450;52.150;4.466;2023-03-08T04:58:34;8.50;;;4.95;;
66272;SDS011;58450;52.150;4.466;2023-03-08T05:01:09;8.30;;;5.20;;
66272;SDS011;58450;52.150;4.466;2023-03-08T05:03:39;8.35;;;4.97;;
66272;SDS011;58450;52.150;4.466;2023-03-08T05:06:07;8.98;;;5.22;;
66272;SDS011;58450;52.150;4.466;2023-03-08T05:08:35;9.07;;;4.85;;
66272;SDS011;58450;52.150;4.466;2023-03-08T05:11:03;7.95;;;5.10;;
66272;SDS011;58450;52.150;4.466;2023-03-08T05:13:32;7.22;;;4.40;;
66272;SDS011;58450;52.150;4.466;2023-03-08T05:16:04;7.65;;;4.80;;
66272;SDS011;58450;52.150;4.466;2023-03-08T05:18:33;7.72;;;4.50;;
66272;SDS011;58450;52.150;4.466;2023-03-08T05:21:02;7.32;;;4.95;;
66272;SDS011;58450;52.150;4.466;2023-03-08T05:23:32;9.70;;;4.72;;
66272;SDS011;58450;52.150;4.466;2023-03-08T05:26:00;8.93;;;4.95;;
66272;SDS011;58450;52.150;4.466;2023-03-08T05:28:31;6.60;;;4.35;;
66272;SDS011;58450;52.150;4.466;2023-03-08T05:31:05;7.53;;;4.72;;
66272;SDS011;58450;52.150;4.466;2023-03-08T05:33:34;9.07;;;4.90;;
66272;SDS011;58450;52.150;4.466;2023-03-08T05:36:02;7.60;;;4.55;;
66272;SDS011;58450;52.150;4.466;2023-03-08T05:38:33;8.30;;;4.75;;
66272;SDS011;58450;52.150;4.466;2023-03-08T05:41:01;8.30;;;4.65;;
66272;SDS011;58450;52.150;4.466;2023-03-08T05:43:31;8.02;;;4.72;;
66272;SDS011;58450;52.150;4.466;2023-03-08T05:46:00;7.13;;;4.70;;
66272;SDS011;58450;52.150;4.466;2023-03-08T05:48:31;9.13;;;5.13;;
66272;SDS011;58450;52.150;4.466;2023-03-08T05:51:03;7.25;;;4.70;;
66272;SDS011;58450;52.150;4.466;2023-03-08T05:53:32;7.88;;;5.13;;
66272;SDS011;58450;52.150;4.466;2023-03-08T05:56:05;8.38;;;5.22;;
66272;SDS011;58450;52.150;4.466;2023-03-08T05:58:35;9.60;;;5.68;;
66272;SDS011;58450;52.150;4.466;2023-03-08T06:01:11;11.18;;;6.45;;
66272;SDS011;58450;52.150;4.466;2023-03-08T06:03:41;12.20;;;7.20;;
66272;SDS011;58450;52.150;4.466;2023-03-08T06:06:10;12.57;;;7.28;;
66272;SDS011;58450;52.150;4.466;2023-03-08T06:08:38;13.25;;;8.38;;
66272;SDS011;58450;52.150;4.466;2023-03-08T06:11:06;14.13;;;8.27;;
66272;SDS011;58450;52.150;4.466;2023-03-08T06:13:34;13.73;;;8.40;;
66272;SDS011;58450;52.150;4.466;2023-03-08T06:16:02;15.10;;;8.82;;
66272;SDS011;58450;52.150;4.466;2023-03-08T06:18:32;16.88;;;9.90;;
66272;SDS011;58450;52.150;4.466;2023-03-08T06:21:03;15.70;;;9.57;;
66272;SDS011;58450;52.150;4.466;2023-03-08T06:23:34;17.02;;;9.93;;
66272;SDS011;58450;52.150;4.466;2023-03-08T06:26:02;15.82;;;10.30;;
66272;SDS011;58450;52.150;4.466;2023-03-08T06:28:32;16.70;;;10.95;;
66272;SDS011;58450;52.150;4.466;2023-03-08T06:31:00;18.73;;;11.48;;
66272;SDS011;58450;52.150;4.466;2023-03-08T06:33:29;22.58;;;11.90;;
66272;SDS011;58450;52.150;4.466;2023-03-08T06:36:00;21.25;;;12.20;;
66272;SDS011;58450;52.150;4.466;2023-03-08T06:38:33;24.08;;;13.02;;
66272;SDS011;58450;52.150;4.466;2023-03-08T06:41:03;24.35;;;14.32;;
66272;SDS011;58450;52.150;4.466;2023-03-08T06:43:31;27.60;;;15.00;;
66272;SDS011;58450;52.150;4.466;2023-03-08T06:46:02;26.90;;;15.43;;
66272;SDS011;58450;52.150;4.466;2023-03-08T06:48:30;29.63;;;17.13;;
66272;SDS011;58450;52.150;4.466;2023-03-08T06:51:00;27.10;;;15.65;;
66272;SDS011;58450;52.150;4.466;2023-03-08T06:53:28;27.80;;;15.50;;
66272;SDS011;58450;52.150;4.466;2023-03-08T06:55:56;28.58;;;15.75;;
66272;SDS011;58450;52.150;4.466;2023-03-08T06:58:23;28.13;;;15.85;;
66272;SDS011;58450;52.150;4.466;2023-03-08T07:00:51;31.52;;;16.60;;
66272;SDS011;58450;52.150;4.466;2023-03-08T07:03:21;31.65;;;17.05;;
66272;SDS011;58450;52.150;4.466;2023-03-08T07:05:50;31.80;;;17.73;;
66272;SDS011;58450;52.150;4.466;2023-03-08T07:08:17;31.27;;;17.42;;
66272;SDS011;58450;52.150;4.466;2023-03-08T07:10:45;34.65;;;18.67;;
66272;SDS011;58450;52.150;4.466;2023-03-08T07:13:12;32.50;;;17.55;;
66272;SDS011;58450;52.150;4.466;2023-03-08T07:15:40;32.85;;;18.17;;
66272;SDS011;58450;52.150;4.466;2023-03-08T07:18:07;33.55;;;18.45;;
66272;SDS011;58450;52.150;4.466;2023-03-08T07:20:35;35.72;;;18.65;;
66272;SDS011;58450;52.150;4.466;2023-03-08T07:23:04;33.20;;;18.20;;
66272;SDS011;58450;52.150;4.466;2023-03-08T07:25:31;35.28;;;19.52;;
66272;SDS011;58450;52.150;4.466;2023-03-08T07:27:59;36.10;;;19.63;;
66272;SDS011;58450;52.150;4.466;2023-03-08T07:30:26;34.38;;;18.88;;
66272;SDS011;58450;52.150;4.466;2023-03-08T07:32:54;34.65;;;19.08;;
66272;SDS011;58450;52.150;4.466;2023-03-08T07:35:21;35.20;;;19.10;;
66272;SDS011;58450;52.150;4.466;2023-03-08T07:37:49;37.97;;;20.08;;
66272;SDS011;58450;52.150;4.466;2023-03-08T07:40:18;37.53;;;19.83;;
66272;SDS011;58450;52.150;4.466;2023-03-08T07:42:46;37.83;;;19.88;;
66272;SDS011;58450;52.150;4.466;2023-03-08T07:45:13;33.83;;;19.10;;
66272;SDS011;58450;52.150;4.466;2023-03-08T07:47:41;36.40;;;19.35;;
66272;SDS011;58450;52.150;4.466;2023-03-08T07:50:09;37.70;;;19.70;;
66272;SDS011;58450;52.150;4.466;2023-03-08T07:52:37;33.45;;;19.42;;
66272;SDS011;58450;52.150;4.466;2023-03-08T07:55:06;32.80;;;18.45;;
66272;SDS011;58450;52.150;4.466;2023-03-08T07:57:35;31.48;;;18.30;;
66272;SDS011;58450;52.150;4.466;2023-03-08T08:00:04;31.15;;;16.83;;
66272;SDS011;58450;52.150;4.466;2023-03-08T08:02:33;33.45;;;18.60;;
66272;SDS011;58450;52.150;4.466;2023-03-08T08:05:02;28.02;;;16.00;;
66272;SDS011;58450;52.150;4.466;2023-03-08T08:07:31;28.73;;;16.73;;
66272;SDS011;58450;52.150;4.466;2023-03-08T08:09:59;27.40;;;15.95;;
66272;SDS011;58450;52.150;4.466;2023-03-08T08:12:26;29.95;;;16.92;;
66272;SDS011;58450;52.150;4.466;2023-03-08T08:14:55;30.83;;;17.80;;
66272;SDS011;58450;52.150;4.466;2023-03-08T08:17:24;35.15;;;20.25;;
66272;SDS011;58450;52.150;4.466;2023-03-08T08:19:52;35.95;;;19.77;;
66272;SDS011;58450;52.150;4.466;2023-03-08T08:22:19;38.67;;;20.42;;
66272;SDS011;58450;52.150;4.466;2023-03-08T08:24:47;36.05;;;20.83;;
66272;SDS011;58450;52.150;4.466;2023-03-08T08:27:14;37.72;;;19.88;;
66272;SDS011;58450;52.150;4.466;2023-03-08T08:29:42;38.58;;;20.40;;
66272;SDS011;58450;52.150;4.466;2023-03-08T08:32:12;41.83;;;23.10;;
66272;SDS011;58450;52.150;4.466;2023-03-08T08:34:39;39.95;;;21.48;;
66272;SDS011;58450;52.150;4.466;2023-03-08T08:37:07;42.05;;;22.77;;
66272;SDS011;58450;52.150;4.466;2023-03-08T08:39:34;42.55;;;22.70;;
66272;SDS011;58450;52.150;4.466;2023-03-08T08:42:02;43.90;;;22.80;;
66272;SDS011;58450;52.150;4.466;2023-03-08T08:44:30;43.15;;;23.33;;
66272;SDS011;58450;52.150;4.466;2023-03-08T08:46:57;44.90;;;24.40;;
66272;SDS011;58450;52.150;4.466;2023-03-08T08:49:26;43.97;;;23.00;;
66272;SDS011;58450;52.150;4.466;2023-03-08T08:51:54;49.20;;;25.00;;
66272;SDS011;58450;52.150;4.466;2023-03-08T08:54:21;44.20;;;23.50;;
66272;SDS011;58450;52.150;4.466;2023-03-08T08:56:49;44.85;;;23.33;;
66272;SDS011;58450;52.150;4.466;2023-03-08T08:59:16;44.38;;;23.55;;
66272;SDS011;58450;52.150;4.466;2023-03-08T09:01:43;42.42;;;22.33;;
66272;SDS011;58450;52.150;4.466;2023-03-08T09:04:12;40.15;;;22.52;;
66272;SDS011;58450;52.150;4.466;2023-03-08T09:06:42;46.53;;;24.13;;
66272;SDS011;58450;52.150;4.466;2023-03-08T09:09:10;40.78;;;21.77;;
66272;SDS011;58450;52.150;4.466;2023-03-08T09:11:37;42.85;;;22.00;;
66272;SDS011;58450;52.150;4.466;2023-03-08T09:14:05;45.15;;;22.65;;
66272;SDS011;58450;52.150;4.466;2023-03-08T09:16:32;43.22;;;23.52;;
66272;SDS011;58450;52.150;4.466;2023-03-08T09:19:02;42.38;;;22.15;;
66272;SDS011;58450;52.150;4.466;2023-03-08T09:21:31;42.30;;;21.70;;
66272;SDS011;58450;52.150;4.466;2023-03-08T09:24:01;42.00;;;21.95;;
66272;SDS011;58450;52.150;4.466;2023-03-08T09:26:32;39.55;;;21.48;;
66272;SDS011;58450;52.150;4.466;2023-03-08T09:29:01;37.85;;;20.77;;
66272;SDS011;58450;52.150;4.466;2023-03-08T09:31:32;38.47;;;20.73;;
66272;SDS011;58450;52.150;4.466;2023-03-08T09:34:04;41.25;;;20.80;;
66272;SDS011;58450;52.150;4.466;2023-03-08T09:36:33;39.55;;;20.23;;
66272;SDS011;58450;52.150;4.466;2023-03-08T09:39:03;40.30;;;21.25;;
66272;SDS011;58450;52.150;4.466;2023-03-08T09:41:40;38.10;;;21.70;;
66272;SDS011;58450;52.150;4.466;2023-03-08T09:44:16;42.45;;;22.55;;
66272;SDS011;58450;52.150;4.466;2023-03-08T09:47:10;39.92;;;21.25;;
66272;SDS011;58450;52.150;4.466;2023-03-08T09:49:47;38.80;;;21.23;;
66272;SDS011;58450;52.150;4.466;2023-03-08T09:52:21;39.55;;;19.88;;
66272;SDS011;58450;52.150;4.466;2023-03-08T09:54:59;36.70;;;21.20;;
66272;SDS011;58450;52.150;4.466;2023-03-08T09:57:29;36.15;;;19.67;;
66272;SDS011;58450;52.150;4.466;2023-03-08T10:00:04;34.08;;;18.75;;
66272;SDS011;58450;52.150;4.466;2023-03-08T10:02:40;37.65;;;19.50;;
66272;SDS011;58450;52.150;4.466;2023-03-08T10:05:23;36.15;;;19.10;;
66272;SDS011;58450;52.150;4.466;2023-03-08T10:08:00;35.65;;;18.73;;
66272;SDS011;58450;52.150;4.466;2023-03-08T10:10:42;38.88;;;20.40;;
66272;SDS011;58450;52.150;4.466;2023-03-08T10:13:30;39.45;;;20.52;;
66272;SDS011;58450;52.150;4.466;2023-03-08T10:16:05;35.35;;;19.02;;
66272;SDS011;58450;52.150;4.466;2023-03-08T10:18:44;33.88;;;18.15;;
66272;SDS011;58450;52.150;4.466;2023-03-08T10:21:16;30.92;;;17.60;;
66272;SDS011;58450;52.150;4.466;2023-03-08T10:23:55;30.60;;;16.77;;
66272;SDS011;58450;52.150;4.466;2023-03-08T10:26:29;31.02;;;17.67;;
66272;SDS011;58450;52.150;4.466;2023-03-08T10:28:57;28.80;;;16.00;;
66272;SDS011;58450;52.150;4.466;2023-03-08T10:31:26;23.30;;;14.10;;
66272;SDS011;58450;52.150;4.466;2023-03-08T10:34:00;24.95;;;14.07;;
66272;SDS011;58450;52.150;4.466;2023-03-08T10:36:45;23.30;;;13.52;;
66272;SDS011;58450;52.150;4.466;2023-03-08T10:39:16;23.20;;;13.32;;
66272;SDS011;58450;52.150;4.466;2023-03-08T10:41:48;24.17;;;13.52;;
66272;SDS011;58450;52.150;4.466;2023-03-08T10:44:31;24.73;;;13.65;;
66272;SDS011;58450;52.150;4.466;2023-03-08T10:47:18;20.73;;;12.13;;
66272;SDS011;58450;52.150;4.466;2023-03-08T10:49:48;19.83;;;10.75;;
66272;SDS011;58450;52.150;4.466;2023-03-08T10:52:28;21.10;;;11.60;;
66272;SDS011;58450;52.150;4.466;2023-03-08T10:54:59;20.35;;;11.18;;
66272;SDS011;58450;52.150;4.466;2023-03-08T10:57:30;19.70;;;10.60;;
66272;SDS011;58450;52.150;4.466;2023-03-08T11:00:02;20.98;;;10.90;;
66272;SDS011;58450;52.150;4.466;2023-03-08T11:02:44;20.83;;;10.55;;
66272;SDS011;58450;52.150;4.466;2023-03-08T11:05:16;20.50;;;11.10;;
66272;SDS011;58450;52.150;4.466;2023-03-08T11:07:49;18.90;;;10.65;;
66272;SDS011;58450;52.150;4.466;2023-03-08T11:10:20;20.45;;;10.80;;
66272;SDS011;58450;52.150;4.466;2023-03-08T11:13:00;18.35;;;10.20;;
66272;SDS011;58450;52.150;4.466;2023-03-08T11:15:31;18.90;;;9.90;;
66272;SDS011;58450;52.150;4.466;2023-03-08T11:18:23;17.67;;;9.77;;
66272;SDS011;58450;52.150;4.466;2023-03-08T11:21:12;23.20;;;11.15;;
66272;SDS011;58450;52.150;4.466;2023-03-08T11:23:53;20.67;;;11.02;;
66272;SDS011;58450;52.150;4.466;2023-03-08T11:26:33;20.23;;;10.57;;
66272;SDS011;58450;52.150;4.466;2023-03-08T11:29:19;21.70;;;11.10;;
66272;SDS011;58450;52.150;4.466;2023-03-08T11:32:05;19.33;;;10.85;;
66272;SDS011;58450;52.150;4.466;2023-03-08T11:34:57;20.52;;;11.02;;
66272;SDS011;58450;52.150;4.466;2023-03-08T11:37:40;22.77;;;10.85;;
66272;SDS011;58450;52.150;4.466;2023-03-08T11:40:19;20.13;;;11.13;;
66272;SDS011;58450;52.150;4.466;2023-03-08T11:42:53;21.35;;;10.95;;
66272;SDS011;58450;52.150;4.466;2023-03-08T11:45:44;22.30;;;12.00;;
66272;SDS011;58450;52.150;4.466;2023-03-08T11:48:33;23.20;;;12.48;;
66272;SDS011;58450;52.150;4.466;2023-03-08T11:51:21;22.05;;;11.60;;
66272;SDS011;58450;52.150;4.466;2023-03-08T11:54:06;22.63;;;12.32;;
66272;SDS011;58450;52.150;4.466;2023-03-08T11:59:17;23.83;;;12.27;;
66272;SDS011;58450;52.150;4.466;2023-03-08T12:01:58;22.92;;;12.13;;
66272;SDS011;58450;52.150;4.466;2023-03-08T12:04:36;21.83;;;12.05;;
66272;SDS011;58450;52.150;4.466;2023-03-08T12:07:14;23.15;;;11.68;;
66272;SDS011;58450;52.150;4.466;2023-03-08T12:09:51;19.83;;;10.60;;
66272;SDS011;58450;52.150;4.466;2023-03-08T12:12:26;22.63;;;11.23;;
66272;SDS011;58450;52.150;4.466;2023-03-08T12:14:59;23.65;;;11.35;;
66272;SDS011;58450;52.150;4.466;2023-03-08T12:17:41;21.30;;;11.18;;
66272;SDS011;58450;52.150;4.466;2023-03-08T12:20:18;20.17;;;10.23;;
66272;SDS011;58450;52.150;4.466;2023-03-08T12:22:49;20.52;;;10.20;;
66272;SDS011;58450;52.150;4.466;2023-03-08T12:25:27;20.90;;;10.10;;
66272;SDS011;58450;52.150;4.466;2023-03-08T12:27:59;21.85;;;10.73;;
66272;SDS011;58450;52.150;4.466;2023-03-08T12:30:40;20.80;;;10.50;;
66272;SDS011;58450;52.150;4.466;2023-03-08T12:33:26;17.98;;;10.27;;
66272;SDS011;58450;52.150;4.466;2023-03-08T12:35:58;19.15;;;9.70;;
66272;SDS011;58450;52.150;4.466;2023-03-08T12:38:31;18.02;;;9.70;;
66272;SDS011;58450;52.150;4.466;2023-03-08T12:41:03;19.33;;;10.07;;
66272;SDS011;58450;52.150;4.466;2023-03-08T12:43:33;19.20;;;9.45;;
66272;SDS011;58450;52.150;4.466;2023-03-08T12:46:04;19.10;;;9.95;;
66272;SDS011;58450;52.150;4.466;2023-03-08T12:48:36;18.00;;;9.60;;
66272;SDS011;58450;52.150;4.466;2023-03-08T12:51:18;18.88;;;9.80;;
66272;SDS011;58450;52.150;4.466;2023-03-08T12:53:55;21.77;;;10.13;;
66272;SDS011;58450;52.150;4.466;2023-03-08T12:56:28;19.30;;;9.77;;
66272;SDS011;58450;52.150;4.466;2023-03-08T12:59:00;19.35;;;9.75;;
66272;SDS011;58450;52.150;4.466;2023-03-08T13:01:58;17.92;;;9.88;;
66272;SDS011;58450;52.150;4.466;2023-03-08T13:04:30;19.13;;;9.93;;
66272;SDS011;58450;52.150;4.466;2023-03-08T13:09:56;19.52;;;10.20;;
66272;SDS011;58450;52.150;4.466;2023-03-08T13:12:35;18.75;;;10.68;;
66272;SDS011;58450;52.150;4.466;2023-03-08T13:15:23;19.90;;;10.50;;
66272;SDS011;58450;52.150;4.466;2023-03-08T13:17:57;19.70;;;11.05;;
66272;SDS011;58450;52.150;4.466;2023-03-08T13:20:39;19.98;;;10.52;;
66272;SDS011;58450;52.150;4.466;2023-03-08T13:23:31;20.88;;;10.57;;
66272;SDS011;58450;52.150;4.466;2023-03-08T13:29:14;19.10;;;10.30;;
66272;SDS011;58450;52.150;4.466;2023-03-08T13:31:44;18.35;;;9.90;;
66272;SDS011;58450;52.150;4.466;2023-03-08T13:34:24;20.60;;;10.18;;
66272;SDS011;58450;52.150;4.466;2023-03-08T13:36:56;17.98;;;9.68;;
66272;SDS011;58450;52.150;4.466;2023-03-08T13:39:25;20.60;;;10.40;;
66272;SDS011;58450;52.150;4.466;2023-03-08T13:42:04;21.15;;;9.63;;
66272;SDS011;58450;52.150;4.466;2023-03-08T13:44:33;18.52;;;9.57;;
66272;SDS011;58450;52.150;4.466;2023-03-08T13:47:02;20.33;;;10.35;;
66272;SDS011;58450;52.150;4.466;2023-03-08T13:49:44;18.02;;;9.40;;
66272;SDS011;58450;52.150;4.466;2023-03-08T13:52:14;19.38;;;9.70;;
66272;SDS011;58450;52.150;4.466;2023-03-08T13:54:47;19.13;;;9.85;;
66272;SDS011;58450;52.150;4.466;2023-03-08T13:57:20;18.27;;;9.18;;
66272;SDS011;58450;52.150;4.466;2023-03-08T13:59:51;20.13;;;9.63;;
66272;SDS011;58450;52.150;4.466;2023-03-08T14:02:22;21.52;;;10.30;;
66272;SDS011;58450;52.150;4.466;2023-03-08T14:04:52;20.67;;;10.63;;
66272;SDS011;58450;52.150;4.466;2023-03-08T14:07:23;20.38;;;10.20;;
66272;SDS011;58450;52.150;4.466;2023-03-08T14:09:55;19.65;;;10.23;;
66272;SDS011;58450;52.150;4.466;2023-03-08T14:12:24;20.52;;;10.32;;
66272;SDS011;58450;52.150;4.466;2023-03-08T14:14:57;20.05;;;10.10;;
66272;SDS011;58450;52.150;4.466;2023-03-08T14:17:29;19.75;;;9.40;;
66272;SDS011;58450;52.150;4.466;2023-03-08T14:20:03;17.20;;;8.77;;
66272;SDS011;58450;52.150;4.466;2023-03-08T14:22:46;17.95;;;8.73;;
66272;SDS011;58450;52.150;4.466;2023-03-08T14:25:23;15.90;;;7.95;;
66272;SDS011;58450;52.150;4.466;2023-03-08T14:27:53;15.85;;;8.20;;
66272;SDS011;58450;52.150;4.466;2023-03-08T14:30:22;15.85;;;8.10;;
66272;SDS011;58450;52.150;4.466;2023-03-08T14:33:02;16.15;;;7.72;;
66272;SDS011;58450;52.150;4.466;2023-03-08T14:35:33;16.98;;;8.50;;
66272;SDS011;58450;52.150;4.466;2023-03-08T14:38:12;18.27;;;9.23;;
66272;SDS011;58450;52.150;4.466;2023-03-08T14:40:47;16.60;;;8.50;;
66272;SDS011;58450;52.150;4.466;2023-03-08T14:43:17;15.15;;;8.07;;
66272;SDS011;58450;52.150;4.466;2023-03-08T14:45:51;17.50;;;8.88;;
66272;SDS011;58450;52.150;4.466;2023-03-08T14:48:23;17.80;;;8.43;;
66272;SDS011;58450;52.150;4.466;2023-03-08T14:50:56;20.13;;;9.52;;
66272;SDS011;58450;52.150;4.466;2023-03-08T14:53:29;17.88;;;9.10;;
66272;SDS011;58450;52.150;4.466;2023-03-08T14:55:59;18.35;;;9.43;;
66272;SDS011;58450;52.150;4.466;2023-03-08T14:58:31;18.52;;;9.20;;
66272;SDS011;58450;52.150;4.466;2023-03-08T15:01:03;22.85;;;9.85;;
66272;SDS011;58450;52.150;4.466;2023-03-08T15:03:31;19.52;;;9.82;;
66272;SDS011;58450;52.150;4.466;2023-03-08T15:06:00;19.15;;;9.23;;